sensor_id;sensor_type;location;lat;lon;timestamp;P1;durP1;ratioP1;P2;durP2;ratioP2
13079;SDS011;6606;49.154;9.280;2022-08-19T00:01:12;11.50;;;10.30;;
13079;SDS011;6606;49.154;9.280;2022-08-19T00:03:40;11.82;;;10.68;;
13079;SDS011;6606;49.154;9.280;2022-08-19T00:06:06;10.63;;;9.63;;
13079;SDS011;6606;49.154;9.280;2022-08-19T00:08:34;10.25;;;9.35;;
13079;SDS011;6606;49.154;9.280;2022-08-19T00:11:00;11.45;;;10.35;;
13079;SDS011;6606;49.154;9.280;2022-08-19T00:13:27;11.05;;;9.95;;
13079;SDS011;6606;49.154;9.280;2022-08-19T00:15:54;10.77;;;9.75;;
13079;SDS011;6606;49.154;9.280;2022-08-19T00:18:21;11.40;;;10.25;;
13079;SDS011;6606;49.154;9.280;2022-08-19T00:20:49;9.90;;;8.98;;
13079;SDS011;6606;49.154;9.280;2022-08-19T00:23:15;11.00;;;10.10;;
13079;SDS011;6606;49.154;9.280;2022-08-19T00:25:42;10.10;;;9.27;;
13079;SDS011;6606;49.154;9.280;2022-08-19T00:28:09;12.27;;;10.13;;
13079;SDS011;6606;49.154;9.280;2022-08-19T00:30:36;12.15;;;9.40;;
13079;SDS011;6606;49.154;9.280;2022-08-19T00:33:03;10.20;;;9.30;;
13079;SDS011;6606;49.154;9.280;2022-08-19T00:35:29;11.38;;;10.27;;
13079;SDS011;6606;49.154;9.280;2022-08-19T00:37:58;11.02;;;9.90;;
13079;SDS011;6606;49.154;9.280;2022-08-19T00:40:25;10.88;;;9.93;;
13079;SDS011;6606;49.154;9.280;2022-08-19T00:42:52;10.85;;;9.82;;
13079;SDS011;6606;49.154;9.280;2022-08-19T00:45:20;12.20;;;11.13;;
13079;SDS011;6606;49.154;9.280;2022-08-19T00:47:49;12.48;;;11.20;;
13079;SDS011;6606;49.154;9.280;2022-08-19T00:50:16;11.02;;;9.93;;
13079;SDS011;6606;49.154;9.280;2022-08-19T00:52:47;12.98;;;10.80;;
13079;SDS011;6606;49.154;9.280;2022-08-19T00:55:18;11.88;;;10.77;;
13079;SDS011;6606;49.154;9.280;2022-08-19T00:57:48;11.63;;;10.52;;
13079;SDS011;6606;49.154;9.280;2022-08-19T01:00:19;11.60;;;10.50;;
13079;SDS011;6606;49.154;9.280;2022-08-19T01:02:48;12.85;;;11.55;;
13079;SDS011;6606;49.154;9.280;2022-08-19T01:05:16;11.82;;;10.63;;
13079;SDS011;6606;49.154;9.280;2022-08-19T01:07:46;12.82;;;11.63;;
13079;SDS011;6606;49.154;9.280;2022-08-19T01:10:15;12.45;;;11.13;;
13079;SDS011;6606;49.154;9.280;2022-08-19T01:12:45;12.52;;;11.23;;
13079;SDS011;6606;49.154;9.280;2022-08-19T01:15:16;14.43;;;11.73;;
13079;SDS011;6606;49.154;9.280;2022-08-19T01:17:45;12.30;;;11.02;;
13079;SDS011;6606;49.154;9.280;2022-08-19T01:20:14;12.60;;;11.40;;
13079;SDS011;6606;49.154;9.280;2022-08-19T01:22:44;12.27;;;11.05;;
13079;SDS011;6606;49.154;9.280;2022-08-19T01:25:13;12.43;;;11.18;;
13079;SDS011;6606;49.154;9.280;2022-08-19T01:27:41;12.15;;;10.95;;
13079;SDS011;6606;49.154;9.280;2022-08-19T01:30:10;13.88;;;11.77;;
13079;SDS011;6606;49.154;9.280;2022-08-19T01:32:39;12.07;;;10.90;;
13079;SDS011;6606;49.154;9.280;2022-08-19T01:35:06;11.60;;;10.55;;
13079;SDS011;6606;49.154;9.280;2022-08-19T01:37:41;12.18;;;10.98;;
13079;SDS011;6606;49.154;9.280;2022-08-19T01:40:11;12.75;;;11.43;;
13079;SDS011;6606;49.154;9.280;2022-08-19T01:42:38;11.65;;;10.45;;
13079;SDS011;6606;49.154;9.280;2022-08-19T01:45:06;12.40;;;11.18;;
13079;SDS011;6606;49.154;9.280;2022-08-19T01:47:34;13.93;;;12.52;;
13079;SDS011;6606;49.154;9.280;2022-08-19T01:50:02;12.75;;;11.55;;
13079;SDS011;6606;49.154;9.280;2022-08-19T01:52:30;12.55;;;11.43;;
13079;SDS011;6606;49.154;9.280;2022-08-19T01:54:56;11.98;;;10.77;;
13079;SDS011;6606;49.154;9.280;2022-08-19T01:57:24;15.02;;;12.23;;
13079;SDS011;6606;49.154;9.280;2022-08-19T01:59:51;12.15;;;10.93;;
13079;SDS011;6606;49.154;9.280;2022-08-19T02:02:18;12.43;;;11.23;;
13079;SDS011;6606;49.154;9.280;2022-08-19T02:04:44;12.85;;;11.75;;
13079;SDS011;6606;49.154;9.280;2022-08-19T02:07:12;12.10;;;11.00;;
13079;SDS011;6606;49.154;9.280;2022-08-19T02:09:38;13.57;;;11.95;;
13079;SDS011;6606;49.154;9.280;2022-08-19T02:12:06;12.98;;;11.77;;
13079;SDS011;6606;49.154;9.280;2022-08-19T02:14:35;13.13;;;11.93;;
13079;SDS011;6606;49.154;9.280;2022-08-19T02:17:02;13.07;;;11.77;;
13079;SDS011;6606;49.154;9.280;2022-08-19T02:19:29;13.98;;;12.60;;
13079;SDS011;6606;49.154;9.280;2022-08-19T02:21:57;13.98;;;12.57;;
13079;SDS011;6606;49.154;9.280;2022-08-19T02:24:24;12.88;;;11.73;;
13079;SDS011;6606;49.154;9.280;2022-08-19T02:26:51;14.82;;;13.30;;
13079;SDS011;6606;49.154;9.280;2022-08-19T02:29:18;15.07;;;13.68;;
13079;SDS011;6606;49.154;9.280;2022-08-19T02:31:47;15.98;;;14.30;;
13079;SDS011;6606;49.154;9.280;2022-08-19T02:34:13;16.13;;;14.48;;
13079;SDS011;6606;49.154;9.280;2022-08-19T02:36:40;16.83;;;14.93;;
13079;SDS011;6606;49.154;9.280;2022-08-19T02:39:07;18.27;;;15.48;;
13079;SDS011;6606;49.154;9.280;2022-08-19T02:41:32;16.70;;;14.98;;
13079;SDS011;6606;49.154;9.280;2022-08-19T02:44:00;17.17;;;15.48;;
13079;SDS011;6606;49.154;9.280;2022-08-19T02:46:30;17.42;;;15.63;;
13079;SDS011;6606;49.154;9.280;2022-08-19T02:49:04;18.80;;;16.10;;
13079;SDS011;6606;49.154;9.280;2022-08-19T02:51:33;17.55;;;15.43;;
13079;SDS011;6606;49.154;9.280;2022-08-19T02:54:02;17.98;;;16.15;;
13079;SDS011;6606;49.154;9.280;2022-08-19T02:56:29;17.70;;;15.90;;
13079;SDS011;6606;49.154;9.280;2022-08-19T02:58:56;18.48;;;16.35;;
13079;SDS011;6606;49.154;9.280;2022-08-19T03:01:25;19.77;;;16.55;;
13079;SDS011;6606;49.154;9.280;2022-08-19T03:03:54;17.23;;;15.48;;
13079;SDS011;6606;49.154;9.280;2022-08-19T03:06:23;17.75;;;15.90;;
13079;SDS011;6606;49.154;9.280;2022-08-19T03:08:50;17.27;;;15.48;;
13079;SDS011;6606;49.154;9.280;2022-08-19T03:11:18;21.55;;;16.00;;
13079;SDS011;6606;49.154;9.280;2022-08-19T03:13:46;17.08;;;15.38;;
13079;SDS011;6606;49.154;9.280;2022-08-19T03:16:14;17.92;;;16.13;;
13079;SDS011;6606;49.154;9.280;2022-08-19T03:18:41;16.98;;;15.23;;
13079;SDS011;6606;49.154;9.280;2022-08-19T03:21:08;16.25;;;14.55;;
13079;SDS011;6606;49.154;9.280;2022-08-19T03:23:36;17.02;;;15.23;;
13079;SDS011;6606;49.154;9.280;2022-08-19T03:26:03;18.95;;;16.85;;
13079;SDS011;6606;49.154;9.280;2022-08-19T03:28:31;18.02;;;16.13;;
13079;SDS011;6606;49.154;9.280;2022-08-19T03:31:00;17.02;;;15.25;;
13079;SDS011;6606;49.154;9.280;2022-08-19T03:33:28;16.80;;;14.95;;
13079;SDS011;6606;49.154;9.280;2022-08-19T03:35:59;17.17;;;15.48;;
13079;SDS011;6606;49.154;9.280;2022-08-19T03:38:30;16.15;;;14.45;;
13079;SDS011;6606;49.154;9.280;2022-08-19T03:41:03;17.67;;;15.77;;
13079;SDS011;6606;49.154;9.280;2022-08-19T03:43:33;17.63;;;15.77;;
13079;SDS011;6606;49.154;9.280;2022-08-19T03:46:02;17.80;;;16.00;;
13079;SDS011;6606;49.154;9.280;2022-08-19T03:48:31;18.30;;;16.33;;
13079;SDS011;6606;49.154;9.280;2022-08-19T03:50:58;18.63;;;16.65;;
13079;SDS011;6606;49.154;9.280;2022-08-19T03:53:25;17.83;;;15.95;;
13079;SDS011;6606;49.154;9.280;2022-08-19T03:55:53;18.50;;;16.35;;
13079;SDS011;6606;49.154;9.280;2022-08-19T03:58:21;19.10;;;16.60;;
13079;SDS011;6606;49.154;9.280;2022-08-19T04:00:48;19.38;;;17.17;;
13079;SDS011;6606;49.154;9.280;2022-08-19T04:03:15;19.60;;;17.50;;
13079;SDS011;6606;49.154;9.280;2022-08-19T04:05:44;17.45;;;15.68;;
13079;SDS011;6606;49.154;9.280;2022-08-19T04:08:11;17.27;;;15.52;;
13079;SDS011;6606;49.154;9.280;2022-08-19T04:10:45;19.08;;;17.08;;
13079;SDS011;6606;49.154;9.280;2022-08-19T04:13:12;20.40;;;17.83;;
13079;SDS011;6606;49.154;9.280;2022-08-19T04:15:40;17.65;;;15.63;;
13079;SDS011;6606;49.154;9.280;2022-08-19T04:18:08;19.50;;;17.23;;
13079;SDS011;6606;49.154;9.280;2022-08-19T04:20:39;19.73;;;17.67;;
13079;SDS011;6606;49.154;9.280;2022-08-19T04:23:07;17.42;;;15.35;;
13079;SDS011;6606;49.154;9.280;2022-08-19T04:25:38;19.50;;;17.42;;
13079;SDS011;6606;49.154;9.280;2022-08-19T04:28:06;18.15;;;16.27;;
13079;SDS011;6606;49.154;9.280;2022-08-19T04:30:38;18.20;;;16.30;;
13079;SDS011;6606;49.154;9.280;2022-08-19T04:33:09;19.75;;;17.73;;
13079;SDS011;6606;49.154;9.280;2022-08-19T04:35:37;17.10;;;15.25;;
13079;SDS011;6606;49.154;9.280;2022-08-19T04:38:05;16.40;;;14.80;;
13079;SDS011;6606;49.154;9.280;2022-08-19T04:40:32;18.08;;;16.15;;
13079;SDS011;6606;49.154;9.280;2022-08-19T04:43:16;16.13;;;14.38;;
13079;SDS011;6606;49.154;9.280;2022-08-19T04:45:45;16.58;;;14.88;;
13079;SDS011;6606;49.154;9.280;2022-08-19T04:48:12;18.90;;;16.90;;
13079;SDS011;6606;49.154;9.280;2022-08-19T04:50:40;19.83;;;17.30;;
13079;SDS011;6606;49.154;9.280;2022-08-19T04:53:08;17.92;;;15.93;;
13079;SDS011;6606;49.154;9.280;2022-08-19T04:55:38;17.23;;;15.43;;
13079;SDS011;6606;49.154;9.280;2022-08-19T04:58:06;18.30;;;16.42;;
13079;SDS011;6606;49.154;9.280;2022-08-19T05:00:33;18.60;;;16.55;;
13079;SDS011;6606;49.154;9.280;2022-08-19T05:03:01;19.17;;;17.17;;
13079;SDS011;6606;49.154;9.280;2022-08-19T05:05:28;17.55;;;15.75;;
13079;SDS011;6606;49.154;9.280;2022-08-19T05:07:57;21.48;;;17.50;;
13079;SDS011;6606;49.154;9.280;2022-08-19T05:10:23;16.20;;;14.50;;
13079;SDS011;6606;49.154;9.280;2022-08-19T05:12:50;18.65;;;15.40;;
13079;SDS011;6606;49.154;9.280;2022-08-19T05:15:17;20.90;;;16.17;;
13079;SDS011;6606;49.154;9.280;2022-08-19T05:17:44;21.35;;;18.52;;
13079;SDS011;6606;49.154;9.280;2022-08-19T05:20:32;17.90;;;15.02;;
13079;SDS011;6606;49.154;9.280;2022-08-19T05:23:16;19.42;;;15.57;;
13079;SDS011;6606;49.154;9.280;2022-08-19T05:25:43;18.90;;;16.77;;
13079;SDS011;6606;49.154;9.280;2022-08-19T05:28:10;18.33;;;16.02;;
13079;SDS011;6606;49.154;9.280;2022-08-19T05:30:36;17.65;;;15.60;;
13079;SDS011;6606;49.154;9.280;2022-08-19T05:33:03;23.30;;;17.27;;
13079;SDS011;6606;49.154;9.280;2022-08-19T05:35:31;19.80;;;16.98;;
13079;SDS011;6606;49.154;9.280;2022-08-19T05:37:58;18.45;;;16.05;;
13079;SDS011;6606;49.154;9.280;2022-08-19T05:40:24;18.25;;;15.60;;
13079;SDS011;6606;49.154;9.280;2022-08-19T05:42:51;19.73;;;16.42;;
13079;SDS011;6606;49.154;9.280;2022-08-19T05:45:18;20.55;;;16.95;;
13079;SDS011;6606;49.154;9.280;2022-08-19T05:47:46;19.73;;;14.82;;
13079;SDS011;6606;49.154;9.280;2022-08-19T05:50:13;17.60;;;14.80;;
13079;SDS011;6606;49.154;9.280;2022-08-19T05:52:41;18.98;;;17.02;;
13079;SDS011;6606;49.154;9.280;2022-08-19T05:55:07;19.92;;;17.30;;
13079;SDS011;6606;49.154;9.280;2022-08-19T05:57:35;19.65;;;17.70;;
13079;SDS011;6606;49.154;9.280;2022-08-19T06:00:02;19.20;;;16.75;;
13079;SDS011;6606;49.154;9.280;2022-08-19T06:02:37;17.65;;;15.85;;
13079;SDS011;6606;49.154;9.280;2022-08-19T06:05:04;18.88;;;16.88;;
13079;SDS011;6606;49.154;9.280;2022-08-19T06:07:34;17.50;;;15.65;;
13079;SDS011;6606;49.154;9.280;2022-08-19T06:10:02;19.52;;;17.25;;
13079;SDS011;6606;49.154;9.280;2022-08-19T06:12:29;20.80;;;17.67;;
13079;SDS011;6606;49.154;9.280;2022-08-19T06:15:00;17.55;;;15.73;;
13079;SDS011;6606;49.154;9.280;2022-08-19T06:17:28;17.85;;;15.95;;
13079;SDS011;6606;49.154;9.280;2022-08-19T06:19:55;15.93;;;13.90;;
13079;SDS011;6606;49.154;9.280;2022-08-19T06:22:23;17.85;;;16.05;;
13079;SDS011;6606;49.154;9.280;2022-08-19T06:24:49;18.90;;;16.90;;
13079;SDS011;6606;49.154;9.280;2022-08-19T06:27:19;20.27;;;16.67;;
13079;SDS011;6606;49.154;9.280;2022-08-19T06:29:45;18.92;;;15.38;;
13079;SDS011;6606;49.154;9.280;2022-08-19T06:32:14;16.20;;;14.50;;
13079;SDS011;6606;49.154;9.280;2022-08-19T06:34:43;17.70;;;15.82;;
13079;SDS011;6606;49.154;9.280;2022-08-19T06:37:10;20.13;;;15.75;;
13079;SDS011;6606;49.154;9.280;2022-08-19T06:39:38;17.83;;;15.18;;
13079;SDS011;6606;49.154;9.280;2022-08-19T06:42:06;19.65;;;17.50;;
13079;SDS011;6606;49.154;9.280;2022-08-19T06:44:38;21.80;;;17.00;;
13079;SDS011;6606;49.154;9.280;2022-08-19T06:47:07;18.30;;;15.60;;
13079;SDS011;6606;49.154;9.280;2022-08-19T06:49:35;22.58;;;16.92;;
13079;SDS011;6606;49.154;9.280;2022-08-19T06:52:03;16.80;;;15.05;;
13079;SDS011;6606;49.154;9.280;2022-08-19T06:54:30;17.08;;;15.30;;
13079;SDS011;6606;49.154;9.280;2022-08-19T06:56:57;18.58;;;16.02;;
13079;SDS011;6606;49.154;9.280;2022-08-19T06:59:27;18.85;;;16.60;;
13079;SDS011;6606;49.154;9.280;2022-08-19T07:01:59;22.58;;;16.08;;
13079;SDS011;6606;49.154;9.280;2022-08-19T07:04:31;17.98;;;16.05;;
13079;SDS011;6606;49.154;9.280;2022-08-19T07:07:00;20.73;;;14.25;;
13079;SDS011;6606;49.154;9.280;2022-08-19T07:09:28;19.23;;;15.70;;
13079;SDS011;6606;49.154;9.280;2022-08-19T07:11:55;15.82;;;13.25;;
13079;SDS011;6606;49.154;9.280;2022-08-19T07:14:23;16.83;;;14.85;;
13079;SDS011;6606;49.154;9.280;2022-08-19T07:16:52;17.80;;;13.75;;
13079;SDS011;6606;49.154;9.280;2022-08-19T07:19:23;16.35;;;13.65;;
13079;SDS011;6606;49.154;9.280;2022-08-19T07:21:52;15.60;;;13.18;;
13079;SDS011;6606;49.154;9.280;2022-08-19T07:24:20;13.98;;;12.50;;
13079;SDS011;6606;49.154;9.280;2022-08-19T07:26:49;15.85;;;12.20;;
13079;SDS011;6606;49.154;9.280;2022-08-19T07:29:18;15.55;;;12.45;;
13079;SDS011;6606;49.154;9.280;2022-08-19T07:31:48;13.75;;;11.63;;
13079;SDS011;6606;49.154;9.280;2022-08-19T07:34:15;14.10;;;11.60;;
13079;SDS011;6606;49.154;9.280;2022-08-19T07:36:44;13.68;;;12.20;;
13079;SDS011;6606;49.154;9.280;2022-08-19T07:39:12;13.43;;;11.65;;
13079;SDS011;6606;49.154;9.280;2022-08-19T07:41:41;12.48;;;11.18;;
13079;SDS011;6606;49.154;9.280;2022-08-19T07:44:08;12.80;;;11.48;;
13079;SDS011;6606;49.154;9.280;2022-08-19T07:46:38;12.90;;;11.30;;
13079;SDS011;6606;49.154;9.280;2022-08-19T07:49:07;13.23;;;10.77;;
13079;SDS011;6606;49.154;9.280;2022-08-19T07:51:44;13.73;;;11.73;;
13079;SDS011;6606;49.154;9.280;2022-08-19T07:54:12;15.63;;;11.43;;
13079;SDS011;6606;49.154;9.280;2022-08-19T07:56:41;13.60;;;12.15;;
13079;SDS011;6606;49.154;9.280;2022-08-19T07:59:10;13.43;;;12.02;;
13079;SDS011;6606;49.154;9.280;2022-08-19T08:01:38;14.13;;;11.48;;
13079;SDS011;6606;49.154;9.280;2022-08-19T08:04:06;12.45;;;11.13;;
13079;SDS011;6606;49.154;9.280;2022-08-19T08:06:57;14.02;;;11.63;;
13079;SDS011;6606;49.154;9.280;2022-08-19T08:09:42;13.63;;;11.85;;
13079;SDS011;6606;49.154;9.280;2022-08-19T08:12:10;14.73;;;12.10;;
13079;SDS011;6606;49.154;9.280;2022-08-19T08:14:40;13.70;;;11.30;;
13079;SDS011;6606;49.154;9.280;2022-08-19T08:17:09;13.70;;;12.23;;
13079;SDS011;6606;49.154;9.280;2022-08-19T08:19:37;12.80;;;11.55;;
13079;SDS011;6606;49.154;9.280;2022-08-19T08:22:08;15.60;;;11.75;;
13079;SDS011;6606;49.154;9.280;2022-08-19T08:24:56;12.82;;;11.20;;
13079;SDS011;6606;49.154;9.280;2022-08-19T08:27:24;12.80;;;10.32;;
13079;SDS011;6606;49.154;9.280;2022-08-19T08:29:51;13.65;;;12.07;;
13079;SDS011;6606;49.154;9.280;2022-08-19T08:32:18;13.52;;;10.90;;
13079;SDS011;6606;49.154;9.280;2022-08-19T08:34:44;12.65;;;11.35;;
13079;SDS011;6606;49.154;9.280;2022-08-19T08:37:12;11.95;;;10.45;;
13079;SDS011;6606;49.154;9.280;2022-08-19T08:39:39;12.05;;;10.85;;
13079;SDS011;6606;49.154;9.280;2022-08-19T08:42:07;12.70;;;11.35;;
13079;SDS011;6606;49.154;9.280;2022-08-19T08:44:42;12.75;;;11.45;;
13079;SDS011;6606;49.154;9.280;2022-08-19T08:47:12;12.27;;;10.98;;
13079;SDS011;6606;49.154;9.280;2022-08-19T08:49:43;12.90;;;11.25;;
13079;SDS011;6606;49.154;9.280;2022-08-19T08:52:18;12.73;;;11.45;;
13079;SDS011;6606;49.154;9.280;2022-08-19T08:54:48;16.15;;;11.05;;
13079;SDS011;6606;49.154;9.280;2022-08-19T08:57:19;12.13;;;10.95;;
13079;SDS011;6606;49.154;9.280;2022-08-19T08:59:50;12.75;;;11.32;;
13079;SDS011;6606;49.154;9.280;2022-08-19T09:02:20;12.18;;;10.90;;
13079;SDS011;6606;49.154;9.280;2022-08-19T09:04:47;13.02;;;10.85;;
13079;SDS011;6606;49.154;9.280;2022-08-19T09:07:24;11.85;;;10.63;;
13079;SDS011;6606;49.154;9.280;2022-08-19T09:10:02;14.00;;;10.70;;
13079;SDS011;6606;49.154;9.280;2022-08-19T09:12:38;13.73;;;11.88;;
13079;SDS011;6606;49.154;9.280;2022-08-19T09:15:25;12.10;;;10.82;;
13079;SDS011;6606;49.154;9.280;2022-08-19T09:17:58;11.45;;;10.30;;
13079;SDS011;6606;49.154;9.280;2022-08-19T09:20:29;13.60;;;10.57;;
13079;SDS011;6606;49.154;9.280;2022-08-19T09:22:58;12.75;;;11.45;;
13079;SDS011;6606;49.154;9.280;2022-08-19T09:25:25;11.70;;;10.60;;
13079;SDS011;6606;49.154;9.280;2022-08-19T09:27:53;11.70;;;10.43;;
13079;SDS011;6606;49.154;9.280;2022-08-19T09:30:22;12.10;;;10.90;;
13079;SDS011;6606;49.154;9.280;2022-08-19T09:32:50;12.55;;;9.90;;
13079;SDS011;6606;49.154;9.280;2022-08-19T09:35:19;10.85;;;9.75;;
13079;SDS011;6606;49.154;9.280;2022-08-19T09:37:48;13.38;;;9.70;;
13079;SDS011;6606;49.154;9.280;2022-08-19T09:43:33;12.02;;;10.82;;
13079;SDS011;6606;49.154;9.280;2022-08-19T09:46:01;10.63;;;9.52;;
13079;SDS011;6606;49.154;9.280;2022-08-19T09:48:30;10.25;;;9.10;;
13079;SDS011;6606;49.154;9.280;2022-08-19T09:51:01;10.48;;;9.25;;
13079;SDS011;6606;49.154;9.280;2022-08-19T09:53:29;9.63;;;8.63;;
13079;SDS011;6606;49.154;9.280;2022-08-19T09:55:56;9.45;;;8.45;;
13079;SDS011;6606;49.154;9.280;2022-08-19T09:58:22;9.18;;;8.27;;
13079;SDS011;6606;49.154;9.280;2022-08-19T10:00:54;9.40;;;8.27;;
13079;SDS011;6606;49.154;9.280;2022-08-19T10:03:21;9.70;;;8.57;;
13079;SDS011;6606;49.154;9.280;2022-08-19T10:05:48;10.25;;;8.32;;
13079;SDS011;6606;49.154;9.280;2022-08-19T10:08:16;9.90;;;8.63;;
13079;SDS011;6606;49.154;9.280;2022-08-19T10:10:44;10.02;;;8.10;;
13079;SDS011;6606;49.154;9.280;2022-08-19T10:13:11;8.35;;;7.57;;
13079;SDS011;6606;49.154;9.280;2022-08-19T10:15:38;8.52;;;7.82;;
13079;SDS011;6606;49.154;9.280;2022-08-19T10:18:07;7.25;;;6.35;;
13079;SDS011;6606;49.154;9.280;2022-08-19T10:20:34;6.95;;;6.25;;
13079;SDS011;6606;49.154;9.280;2022-08-19T10:23:02;6.85;;;6.15;;
13079;SDS011;6606;49.154;9.280;2022-08-19T10:25:29;7.50;;;6.00;;
13079;SDS011;6606;49.154;9.280;2022-08-19T10:27:56;7.90;;;5.65;;
13079;SDS011;6606;49.154;9.280;2022-08-19T10:30:22;5.47;;;4.60;;
13079;SDS011;6606;49.154;9.280;2022-08-19T10:32:49;8.38;;;5.05;;
13079;SDS011;6606;49.154;9.280;2022-08-19T10:35:17;5.43;;;4.85;;
13079;SDS011;6606;49.154;9.280;2022-08-19T10:37:44;6.22;;;5.20;;
13079;SDS011;6606;49.154;9.280;2022-08-19T10:40:10;5.68;;;4.32;;
13079;SDS011;6606;49.154;9.280;2022-08-19T10:42:37;5.10;;;4.60;;
13079;SDS011;6606;49.154;9.280;2022-08-19T10:45:05;6.55;;;4.35;;
13079;SDS011;6606;49.154;9.280;2022-08-19T10:47:32;4.75;;;3.85;;
13079;SDS011;6606;49.154;9.280;2022-08-19T10:49:59;5.10;;;4.07;;
13079;SDS011;6606;49.154;9.280;2022-08-19T10:52:56;5.53;;;4.57;;
13079;SDS011;6606;49.154;9.280;2022-08-19T10:55:23;5.00;;;4.15;;
13079;SDS011;6606;49.154;9.280;2022-08-19T10:58:11;4.88;;;4.00;;
13079;SDS011;6606;49.154;9.280;2022-08-19T11:00:39;5.50;;;4.20;;
13079;SDS011;6606;49.154;9.280;2022-08-19T11:03:06;5.97;;;4.05;;
13079;SDS011;6606;49.154;9.280;2022-08-19T11:05:33;5.30;;;4.03;;
13079;SDS011;6606;49.154;9.280;2022-08-19T11:08:02;6.00;;;4.40;;
13079;SDS011;6606;49.154;9.280;2022-08-19T11:10:29;5.60;;;4.10;;
13079;SDS011;6606;49.154;9.280;2022-08-19T11:12:55;4.57;;;3.90;;
13079;SDS011;6606;49.154;9.280;2022-08-19T11:15:22;4.28;;;3.70;;
13079;SDS011;6606;49.154;9.280;2022-08-19T11:17:51;4.13;;;3.67;;
13079;SDS011;6606;49.154;9.280;2022-08-19T11:20:19;3.80;;;3.30;;
13079;SDS011;6606;49.154;9.280;2022-08-19T11:22:45;4.43;;;3.50;;
13079;SDS011;6606;49.154;9.280;2022-08-19T11:25:13;4.95;;;3.63;;
13079;SDS011;6606;49.154;9.280;2022-08-19T11:27:40;5.88;;;3.60;;
13079;SDS011;6606;49.154;9.280;2022-08-19T11:30:08;5.40;;;3.45;;
13079;SDS011;6606;49.154;9.280;2022-08-19T11:32:36;4.20;;;3.10;;
13079;SDS011;6606;49.154;9.280;2022-08-19T11:35:03;3.45;;;3.15;;
13079;SDS011;6606;49.154;9.280;2022-08-19T11:37:30;5.03;;;3.25;;
13079;SDS011;6606;49.154;9.280;2022-08-19T11:39:57;3.50;;;3.10;;
13079;SDS011;6606;49.154;9.280;2022-08-19T11:42:26;5.10;;;3.28;;
13079;SDS011;6606;49.154;9.280;2022-08-19T11:45:10;4.25;;;3.15;;
13079;SDS011;6606;49.154;9.280;2022-08-19T11:47:38;3.42;;;2.88;;
13079;SDS011;6606;49.154;9.280;2022-08-19T11:50:06;3.75;;;3.20;;
13079;SDS011;6606;49.154;9.280;2022-08-19T11:52:34;3.65;;;3.00;;
13079;SDS011;6606;49.154;9.280;2022-08-19T11:55:01;5.40;;;3.17;;
13079;SDS011;6606;49.154;9.280;2022-08-19T11:57:29;3.17;;;2.80;;
13079;SDS011;6606;49.154;9.280;2022-08-19T11:59:56;4.72;;;3.00;;
13079;SDS011;6606;49.154;9.280;2022-08-19T12:02:22;3.28;;;2.80;;
13079;SDS011;6606;49.154;9.280;2022-08-19T12:04:50;4.13;;;3.10;;
13079;SDS011;6606;49.154;9.280;2022-08-19T12:07:17;3.60;;;3.08;;
13079;SDS011;6606;49.154;9.280;2022-08-19T12:09:44;3.95;;;3.15;;
13079;SDS011;6606;49.154;9.280;2022-08-19T12:12:10;3.75;;;3.05;;
13079;SDS011;6606;49.154;9.280;2022-08-19T12:14:38;5.43;;;3.40;;
13079;SDS011;6606;49.154;9.280;2022-08-19T12:17:05;3.38;;;2.90;;
13079;SDS011;6606;49.154;9.280;2022-08-19T12:19:33;3.90;;;3.13;;
13079;SDS011;6606;49.154;9.280;2022-08-19T12:22:02;4.35;;;3.55;;
13079;SDS011;6606;49.154;9.280;2022-08-19T12:24:30;4.18;;;2.78;;
13079;SDS011;6606;49.154;9.280;2022-08-19T12:27:01;3.97;;;2.97;;
13079;SDS011;6606;49.154;9.280;2022-08-19T12:29:28;3.13;;;2.83;;
13079;SDS011;6606;49.154;9.280;2022-08-19T12:31:56;4.20;;;2.88;;
13079;SDS011;6606;49.154;9.280;2022-08-19T12:34:27;3.30;;;2.92;;
13079;SDS011;6606;49.154;9.280;2022-08-19T12:36:56;4.75;;;3.03;;
13079;SDS011;6606;49.154;9.280;2022-08-19T12:39:23;3.08;;;2.78;;
13079;SDS011;6606;49.154;9.280;2022-08-19T12:41:51;6.00;;;2.75;;
13079;SDS011;6606;49.154;9.280;2022-08-19T12:44:17;2.85;;;2.65;;
13079;SDS011;6606;49.154;9.280;2022-08-19T12:46:44;4.05;;;3.10;;
13079;SDS011;6606;49.154;9.280;2022-08-19T12:49:14;3.03;;;2.53;;
13079;SDS011;6606;49.154;9.280;2022-08-19T12:51:41;6.05;;;2.90;;
13079;SDS011;6606;49.154;9.280;2022-08-19T12:54:08;3.80;;;2.92;;
13079;SDS011;6606;49.154;9.280;2022-08-19T12:56:36;3.28;;;2.58;;
13079;SDS011;6606;49.154;9.280;2022-08-19T12:59:08;4.22;;;2.70;;
13079;SDS011;6606;49.154;9.280;2022-08-19T13:01:36;3.45;;;2.78;;
13079;SDS011;6606;49.154;9.280;2022-08-19T13:04:03;3.78;;;3.00;;
13079;SDS011;6606;49.154;9.280;2022-08-19T13:06:31;4.15;;;2.85;;
13079;SDS011;6606;49.154;9.280;2022-08-19T13:08:58;3.40;;;3.05;;
13079;SDS011;6606;49.154;9.280;2022-08-19T13:11:24;3.20;;;2.90;;
13079;SDS011;6606;49.154;9.280;2022-08-19T13:13:51;2.75;;;2.55;;
13079;SDS011;6606;49.154;9.280;2022-08-19T13:16:22;3.45;;;2.78;;
13079;SDS011;6606;49.154;9.280;2022-08-19T13:18:49;5.28;;;2.97;;
13079;SDS011;6606;49.154;9.280;2022-08-19T13:21:17;3.10;;;2.80;;
13079;SDS011;6606;49.154;9.280;2022-08-19T13:23:47;3.63;;;3.05;;
13079;SDS011;6606;49.154;9.280;2022-08-19T13:26:14;5.55;;;2.53;;
13079;SDS011;6606;49.154;9.280;2022-08-19T13:28:42;3.50;;;2.80;;
13079;SDS011;6606;49.154;9.280;2022-08-19T13:31:28;2.75;;;2.50;;
13079;SDS011;6606;49.154;9.280;2022-08-19T13:34:14;3.10;;;2.80;;
13079;SDS011;6606;49.154;9.280;2022-08-19T13:36:42;2.80;;;2.17;;
13079;SDS011;6606;49.154;9.280;2022-08-19T13:39:10;3.25;;;2.65;;
13079;SDS011;6606;49.154;9.280;2022-08-19T13:41:37;3.83;;;2.72;;
13079;SDS011;6606;49.154;9.280;2022-08-19T13:44:12;2.50;;;2.30;;
13079;SDS011;6606;49.154;9.280;2022-08-19T13:46:40;3.45;;;2.67;;
13079;SDS011;6606;49.154;9.280;2022-08-19T13:49:09;2.90;;;2.60;;
13079;SDS011;6606;49.154;9.280;2022-08-19T13:51:36;2.80;;;2.58;;
13079;SDS011;6606;49.154;9.280;2022-08-19T13:54:04;4.00;;;2.33;;
13079;SDS011;6606;49.154;9.280;2022-08-19T13:56:32;2.97;;;2.47;;
13079;SDS011;6606;49.154;9.280;2022-08-19T13:58:59;4.68;;;2.65;;
13079;SDS011;6606;49.154;9.280;2022-08-19T14:01:26;3.45;;;2.78;;
13079;SDS011;6606;49.154;9.280;2022-08-19T14:03:53;4.28;;;2.78;;
13079;SDS011;6606;49.154;9.280;2022-08-19T14:06:20;2.92;;;2.60;;
13079;SDS011;6606;49.154;9.280;2022-08-19T14:08:47;3.08;;;2.78;;
13079;SDS011;6606;49.154;9.280;2022-08-19T14:11:14;3.58;;;2.90;;
13079;SDS011;6606;49.154;9.280;2022-08-19T14:13:42;6.35;;;2.95;;
13079;SDS011;6606;49.154;9.280;2022-08-19T14:16:09;4.63;;;2.80;;
13079;SDS011;6606;49.154;9.280;2022-08-19T14:18:37;3.80;;;2.95;;
13079;SDS011;6606;49.154;9.280;2022-08-19T14:21:05;3.85;;;3.10;;
13079;SDS011;6606;49.154;9.280;2022-08-19T14:23:32;4.63;;;2.85;;
13079;SDS011;6606;49.154;9.280;2022-08-19T14:26:04;4.20;;;3.05;;
13079;SDS011;6606;49.154;9.280;2022-08-19T14:28:33;5.70;;;4.53;;
13079;SDS011;6606;49.154;9.280;2022-08-19T14:31:01;8.10;;;3.63;;
13079;SDS011;6606;49.154;9.280;2022-08-19T14:33:27;6.45;;;3.17;;
13079;SDS011;6606;49.154;9.280;2022-08-19T14:35:54;4.72;;;3.70;;
13079;SDS011;6606;49.154;9.280;2022-08-19T14:38:21;4.80;;;4.03;;
13079;SDS011;6606;49.154;9.280;2022-08-19T14:40:47;10.25;;;5.13;;
13079;SDS011;6606;49.154;9.280;2022-08-19T14:43:17;5.25;;;4.30;;
13079;SDS011;6606;49.154;9.280;2022-08-19T14:45:43;6.18;;;4.35;;
13079;SDS011;6606;49.154;9.280;2022-08-19T14:48:14;4.38;;;3.97;;
13079;SDS011;6606;49.154;9.280;2022-08-19T14:50:41;4.68;;;4.15;;
13079;SDS011;6606;49.154;9.280;2022-08-19T14:53:08;4.47;;;4.03;;
13079;SDS011;6606;49.154;9.280;2022-08-19T14:55:35;4.70;;;4.20;;